sensor_id;sensor_type;location;lat;lon;timestamp;pressure;altitude;pressure_sealevel;temperature;humidity
64189;BME280;50493;50.970;10.082;2023-04-23T00:00:40;98471.16;;;17.39;49.67
64189;BME280;50493;50.970;10.082;2023-04-23T00:03:07;98463.28;;;17.10;47.56
64189;BME280;50493;50.970;10.082;2023-04-23T00:05:34;98462.19;;;17.00;50.39
64189;BME280;50493;50.970;10.082;2023-04-23T00:08:01;98455.13;;;16.86;48.46
64189;BME280;50493;50.970;10.082;2023-04-23T00:10:27;98455.66;;;17.06;46.90
64189;BME280;50493;50.970;10.082;2023-04-23T00:12:53;98455.41;;;16.96;46.90
64189;BME280;50493;50.970;10.082;2023-04-23T00:15:19;98453.44;;;16.85;48.18
64189;BME280;50493;50.970;10.082;2023-04-23T00:17:48;98450.88;;;16.55;50.19
64189;BME280;50493;50.970;10.082;2023-04-23T00:20:14;98442.00;;;16.84;48.28
64189;BME280;50493;50.970;10.082;2023-04-23T00:22:40;98445.22;;;16.90;48.38
64189;BME280;50493;50.970;10.082;2023-04-23T00:25:06;98441.91;;;16.28;49.47
64189;BME280;50493;50.970;10.082;2023-04-23T00:27:32;98444.84;;;16.38;49.18
64189;BME280;50493;50.970;10.082;2023-04-23T00:29:57;98446.03;;;15.88;51.50
64189;BME280;50493;50.970;10.082;2023-04-23T00:32:22;98448.66;;;15.41;53.21
64189;BME280;50493;50.970;10.082;2023-04-23T00:34:49;98442.56;;;15.41;54.14
64189;BME280;50493;50.970;10.082;2023-04-23T00:37:15;98438.00;;;15.28;55.54
64189;BME280;50493;50.970;10.082;2023-04-23T00:39:40;98438.31;;;15.06;57.57
64189;BME280;50493;50.970;10.082;2023-04-23T00:42:06;98444.97;;;14.97;58.00
64189;BME280;50493;50.970;10.082;2023-04-23T00:44:37;98436.59;;;14.89;57.92
64189;BME280;50493;50.970;10.082;2023-04-23T00:47:03;98441.75;;;14.41;59.93
64189;BME280;50493;50.970;10.082;2023-04-23T00:49:29;98430.63;;;14.70;59.66
64189;BME280;50493;50.970;10.082;2023-04-23T00:51:56;98434.69;;;14.59;59.32
64189;BME280;50493;50.970;10.082;2023-04-23T00:54:21;98435.69;;;14.23;60.76
64189;BME280;50493;50.970;10.082;2023-04-23T00:56:47;98439.50;;;14.17;60.47
64189;BME280;50493;50.970;10.082;2023-04-23T00:59:12;98435.94;;;14.19;60.63
64189;BME280;50493;50.970;10.082;2023-04-23T01:01:38;98434.06;;;13.86;61.54
64189;BME280;50493;50.970;10.082;2023-04-23T01:04:05;98442.44;;;13.94;61.65
64189;BME280;50493;50.970;10.082;2023-04-23T01:06:30;98433.41;;;14.17;61.19
64189;BME280;50493;50.970;10.082;2023-04-23T01:08:57;98437.84;;;14.32;61.07
64189;BME280;50493;50.970;10.082;2023-04-23T01:11:23;98438.59;;;14.68;59.23
64189;BME280;50493;50.970;10.082;2023-04-23T01:13:49;98437.41;;;14.58;59.70
64189;BME280;50493;50.970;10.082;2023-04-23T01:16:14;98435.88;;;14.70;59.24
64189;BME280;50493;50.970;10.082;2023-04-23T01:18:40;98435.06;;;14.69;59.17
64189;BME280;50493;50.970;10.082;2023-04-23T01:21:06;98434.72;;;14.75;58.24
64189;BME280;50493;50.970;10.082;2023-04-23T01:23:34;98441.56;;;15.11;57.42
64189;BME280;50493;50.970;10.082;2023-04-23T01:25:59;98435.53;;;15.09;56.23
64189;BME280;50493;50.970;10.082;2023-04-23T01:28:25;98434.84;;;15.06;57.36
64189;BME280;50493;50.970;10.082;2023-04-23T01:30:51;98434.44;;;15.13;56.77
64189;BME280;50493;50.970;10.082;2023-04-23T01:33:16;98436.09;;;15.30;56.63
64189;BME280;50493;50.970;10.082;2023-04-23T01:35:43;98435.78;;;15.21;55.96
64189;BME280;50493;50.970;10.082;2023-04-23T01:38:10;98438.00;;;14.96;57.35
64189;BME280;50493;50.970;10.082;2023-04-23T01:40:37;98427.66;;;15.09;56.31
64189;BME280;50493;50.970;10.082;2023-04-23T01:43:04;98432.72;;;15.12;55.43
64189;BME280;50493;50.970;10.082;2023-04-23T01:45:30;98433.22;;;15.35;54.41
64189;BME280;50493;50.970;10.082;2023-04-23T01:47:55;98430.75;;;15.78;55.07
64189;BME280;50493;50.970;10.082;2023-04-23T01:50:21;98434.94;;;15.36;56.41
64189;BME280;50493;50.970;10.082;2023-04-23T01:52:49;98436.88;;;15.16;57.79
64189;BME280;50493;50.970;10.082;2023-04-23T01:55:15;98435.69;;;15.06;58.02
64189;BME280;50493;50.970;10.082;2023-04-23T01:57:42;98435.53;;;14.60;60.84
64189;BME280;50493;50.970;10.082;2023-04-23T02:00:08;98434.19;;;14.53;58.92
64189;BME280;50493;50.970;10.082;2023-04-23T02:02:35;98438.16;;;14.60;60.74
64189;BME280;50493;50.970;10.082;2023-04-23T02:05:02;98437.91;;;14.48;61.57
64189;BME280;50493;50.970;10.082;2023-04-23T02:07:29;98432.31;;;14.55;58.87
64189;BME280;50493;50.970;10.082;2023-04-23T02:09:55;98440.75;;;14.77;60.17
64189;BME280;50493;50.970;10.082;2023-04-23T02:12:20;98444.47;;;14.73;59.46
64189;BME280;50493;50.970;10.082;2023-04-23T02:14:47;98434.03;;;14.72;61.22
64189;BME280;50493;50.970;10.082;2023-04-23T02:17:12;98437.63;;;14.87;60.22
64189;BME280;50493;50.970;10.082;2023-04-23T02:19:37;98439.31;;;14.88;61.59
64189;BME280;50493;50.970;10.082;2023-04-23T02:22:03;98432.19;;;14.90;59.03
64189;BME280;50493;50.970;10.082;2023-04-23T02:24:28;98438.25;;;14.92;57.91
64189;BME280;50493;50.970;10.082;2023-04-23T02:26:53;98439.31;;;14.88;56.38
64189;BME280;50493;50.970;10.082;2023-04-23T02:29:19;98434.44;;;15.13;60.55
64189;BME280;50493;50.970;10.082;2023-04-23T02:31:46;98436.38;;;15.26;60.86
64189;BME280;50493;50.970;10.082;2023-04-23T02:34:11;98430.88;;;15.14;58.23
64189;BME280;50493;50.970;10.082;2023-04-23T02:36:37;98433.22;;;15.03;56.83
64189;BME280;50493;50.970;10.082;2023-04-23T02:39:03;98436.13;;;15.14;58.17
64189;BME280;50493;50.970;10.082;2023-04-23T02:41:28;98429.50;;;15.07;55.48
64189;BME280;50493;50.970;10.082;2023-04-23T02:43:53;98435.97;;;15.01;58.21
64189;BME280;50493;50.970;10.082;2023-04-23T02:46:19;98437.75;;;14.67;61.20
64189;BME280;50493;50.970;10.082;2023-04-23T02:48:46;98441.59;;;14.62;62.24
64189;BME280;50493;50.970;10.082;2023-04-23T02:51:12;98434.00;;;14.56;63.32
64189;BME280;50493;50.970;10.082;2023-04-23T02:53:38;98443.25;;;14.47;62.69
64189;BME280;50493;50.970;10.082;2023-04-23T02:56:03;98439.66;;;14.32;59.36
64189;BME280;50493;50.970;10.082;2023-04-23T02:58:29;98436.31;;;14.28;59.94
64189;BME280;50493;50.970;10.082;2023-04-23T03:00:55;98435.13;;;14.34;63.96
64189;BME280;50493;50.970;10.082;2023-04-23T03:03:20;98438.75;;;14.49;64.05
64189;BME280;50493;50.970;10.082;2023-04-23T03:05:47;98425.38;;;14.54;62.08
64189;BME280;50493;50.970;10.082;2023-04-23T03:08:12;98432.16;;;14.07;65.30
64189;BME280;50493;50.970;10.082;2023-04-23T03:10:38;98434.72;;;14.08;59.00
64189;BME280;50493;50.970;10.082;2023-04-23T03:13:03;98437.97;;;14.13;63.67
64189;BME280;50493;50.970;10.082;2023-04-23T03:15:29;98444.91;;;14.14;65.43
64189;BME280;50493;50.970;10.082;2023-04-23T03:17:54;98444.50;;;14.22;63.64
64189;BME280;50493;50.970;10.082;2023-04-23T03:20:20;98447.09;;;14.06;65.62
64189;BME280;50493;50.970;10.082;2023-04-23T03:22:47;98442.72;;;13.88;60.55
64189;BME280;50493;50.970;10.082;2023-04-23T03:25:12;98448.00;;;13.88;67.94
64189;BME280;50493;50.970;10.082;2023-04-23T03:27:38;98446.28;;;13.87;67.59
64189;BME280;50493;50.970;10.082;2023-04-23T03:30:05;98446.44;;;13.83;62.91
64189;BME280;50493;50.970;10.082;2023-04-23T03:32:32;98449.25;;;13.61;63.02
64189;BME280;50493;50.970;10.082;2023-04-23T03:34:57;98444.91;;;13.79;69.31
64189;BME280;50493;50.970;10.082;2023-04-23T03:37:22;98455.41;;;13.79;67.65
64189;BME280;50493;50.970;10.082;2023-04-23T03:39:49;98452.88;;;13.59;69.44
64189;BME280;50493;50.970;10.082;2023-04-23T03:42:15;98445.34;;;13.70;69.32
64189;BME280;50493;50.970;10.082;2023-04-23T03:44:40;98453.28;;;13.51;68.58
64189;BME280;50493;50.970;10.082;2023-04-23T03:47:06;98450.25;;;13.41;71.20
64189;BME280;50493;50.970;10.082;2023-04-23T03:49:31;98450.16;;;13.25;65.41
64189;BME280;50493;50.970;10.082;2023-04-23T03:51:56;98454.19;;;13.50;70.71
64189;BME280;50493;50.970;10.082;2023-04-23T03:54:22;98454.19;;;13.50;66.42
64189;BME280;50493;50.970;10.082;2023-04-23T03:56:50;98454.72;;;13.39;72.05
64189;BME280;50493;50.970;10.082;2023-04-23T03:59:15;98451.34;;;13.55;69.74
64189;BME280;50493;50.970;10.082;2023-04-23T04:01:41;98455.91;;;13.51;66.60
64189;BME280;50493;50.970;10.082;2023-04-23T04:04:06;98458.97;;;13.42;62.38
64189;BME280;50493;50.970;10.082;2023-04-23T04:06:32;98467.66;;;13.25;61.26
64189;BME280;50493;50.970;10.082;2023-04-23T04:08:57;98477.25;;;13.07;60.60
64189;BME280;50493;50.970;10.082;2023-04-23T04:11:23;98481.75;;;13.22;63.64
64189;BME280;50493;50.970;10.082;2023-04-23T04:13:49;98475.66;;;13.22;63.40
64189;BME280;50493;50.970;10.082;2023-04-23T04:16:14;98487.59;;;12.70;69.52
64189;BME280;50493;50.970;10.082;2023-04-23T04:18:40;98495.22;;;12.56;69.06
64189;BME280;50493;50.970;10.082;2023-04-23T04:21:06;98490.63;;;12.61;70.45
64189;BME280;50493;50.970;10.082;2023-04-23T04:23:31;98489.63;;;12.44;64.20
64189;BME280;50493;50.970;10.082;2023-04-23T04:25:57;98497.28;;;12.68;63.16
64189;BME280;50493;50.970;10.082;2023-04-23T04:28:24;98499.44;;;12.79;65.28
64189;BME280;50493;50.970;10.082;2023-04-23T04:30:51;98506.34;;;12.81;62.20
64189;BME280;50493;50.970;10.082;2023-04-23T04:33:18;98507.16;;;12.83;67.35
64189;BME280;50493;50.970;10.082;2023-04-23T04:35:44;98514.28;;;13.20;69.51
64189;BME280;50493;50.970;10.082;2023-04-23T04:38:10;98510.06;;;13.15;69.03
64189;BME280;50493;50.970;10.082;2023-04-23T04:40:36;98507.59;;;13.12;67.47
64189;BME280;50493;50.970;10.082;2023-04-23T04:43:01;98517.31;;;13.10;67.04
64189;BME280;50493;50.970;10.082;2023-04-23T04:45:30;98522.91;;;13.22;70.61
64189;BME280;50493;50.970;10.082;2023-04-23T04:47:57;98524.47;;;13.26;69.21
64189;BME280;50493;50.970;10.082;2023-04-23T04:50:23;98524.47;;;13.07;67.79
64189;BME280;50493;50.970;10.082;2023-04-23T04:52:48;98521.75;;;13.08;68.12
64189;BME280;50493;50.970;10.082;2023-04-23T04:55:14;98521.28;;;13.00;67.03
64189;BME280;50493;50.970;10.082;2023-04-23T04:57:39;98515.25;;;13.36;69.70
64189;BME280;50493;50.970;10.082;2023-04-23T05:00:19;98515.53;;;13.30;68.92
64189;BME280;50493;50.970;10.082;2023-04-23T05:02:47;98519.78;;;13.32;67.76
64189;BME280;50493;50.970;10.082;2023-04-23T05:05:13;98521.06;;;13.24;69.11
64189;BME280;50493;50.970;10.082;2023-04-23T05:07:39;98522.91;;;13.22;69.93
64189;BME280;50493;50.970;10.082;2023-04-23T05:10:05;98517.09;;;12.96;69.36
64189;BME280;50493;50.970;10.082;2023-04-23T05:12:30;98520.63;;;12.95;66.44
64189;BME280;50493;50.970;10.082;2023-04-23T05:14:56;98529.00;;;13.03;63.30
64189;BME280;50493;50.970;10.082;2023-04-23T05:17:21;98532.47;;;12.85;68.62
64189;BME280;50493;50.970;10.082;2023-04-23T05:19:46;98536.16;;;12.80;62.40
64189;BME280;50493;50.970;10.082;2023-04-23T05:22:13;98538.56;;;12.85;61.69
64189;BME280;50493;50.970;10.082;2023-04-23T05:24:39;98530.44;;;13.10;65.49
64189;BME280;50493;50.970;10.082;2023-04-23T05:27:04;98535.94;;;13.04;61.90
64189;BME280;50493;50.970;10.082;2023-04-23T05:29:30;98539.00;;;13.14;67.34
64189;BME280;50493;50.970;10.082;2023-04-23T05:31:55;98544.53;;;13.08;64.09
64189;BME280;50493;50.970;10.082;2023-04-23T05:34:20;98550.84;;;13.23;67.55
64189;BME280;50493;50.970;10.082;2023-04-23T05:36:46;98552.69;;;13.21;66.58
64189;BME280;50493;50.970;10.082;2023-04-23T05:39:12;98559.56;;;13.04;67.06
64189;BME280;50493;50.970;10.082;2023-04-23T05:41:38;98552.50;;;12.86;64.42
64189;BME280;50493;50.970;10.082;2023-04-23T05:44:03;98559.97;;;12.74;61.94
64189;BME280;50493;50.970;10.082;2023-04-23T05:46:28;98553.56;;;12.81;61.38
64189;BME280;50493;50.970;10.082;2023-04-23T05:48:54;98551.84;;;13.01;66.45
64189;BME280;50493;50.970;10.082;2023-04-23T05:51:19;98545.63;;;13.23;65.52
64189;BME280;50493;50.970;10.082;2023-04-23T05:53:44;98558.66;;;13.43;66.45
64189;BME280;50493;50.970;10.082;2023-04-23T05:56:11;98555.13;;;13.44;67.23
64189;BME280;50493;50.970;10.082;2023-04-23T05:58:36;98555.09;;;13.63;65.93
64189;BME280;50493;50.970;10.082;2023-04-23T06:01:02;98561.69;;;13.34;65.62
64189;BME280;50493;50.970;10.082;2023-04-23T06:03:28;98562.91;;;13.27;65.96
64189;BME280;50493;50.970;10.082;2023-04-23T06:05:53;98567.59;;;13.39;64.73
64189;BME280;50493;50.970;10.082;2023-04-23T06:08:19;98571.56;;;13.67;64.19
64189;BME280;50493;50.970;10.082;2023-04-23T06:10:45;98574.34;;;14.00;65.92
64189;BME280;50493;50.970;10.082;2023-04-23T06:13:11;98574.16;;;14.23;65.64
64189;BME280;50493;50.970;10.082;2023-04-23T06:15:37;98579.19;;;14.45;66.08
64189;BME280;50493;50.970;10.082;2023-04-23T06:18:02;98582.34;;;14.69;64.19
64189;BME280;50493;50.970;10.082;2023-04-23T06:20:28;98571.19;;;14.81;62.60
64189;BME280;50493;50.970;10.082;2023-04-23T06:22:54;98569.84;;;14.57;57.24
64189;BME280;50493;50.970;10.082;2023-04-23T06:25:19;98563.91;;;15.04;62.83
64189;BME280;50493;50.970;10.082;2023-04-23T06:27:45;98562.84;;;15.40;62.32
64189;BME280;50493;50.970;10.082;2023-04-23T06:30:12;98561.13;;;16.03;56.78
64189;BME280;50493;50.970;10.082;2023-04-23T06:32:38;98565.16;;;17.00;56.24
64189;BME280;50493;50.970;10.082;2023-04-23T06:35:04;98562.63;;;17.55;52.16
64189;BME280;50493;50.970;10.082;2023-04-23T06:37:30;98559.63;;;18.56;50.18
64189;BME280;50493;50.970;10.082;2023-04-23T06:39:55;98555.53;;;18.37;42.63
64189;BME280;50493;50.970;10.082;2023-04-23T06:42:21;98556.66;;;18.20;42.83
64189;BME280;50493;50.970;10.082;2023-04-23T06:44:46;98553.06;;;19.13;44.92
64189;BME280;50493;50.970;10.082;2023-04-23T06:47:13;98551.91;;;20.15;41.32
64189;BME280;50493;50.970;10.082;2023-04-23T06:49:39;98548.00;;;20.91;43.62
64189;BME280;50493;50.970;10.082;2023-04-23T06:52:05;98547.50;;;21.65;39.32
64189;BME280;50493;50.970;10.082;2023-04-23T06:54:30;98549.13;;;21.88;39.71
64189;BME280;50493;50.970;10.082;2023-04-23T06:56:55;98547.63;;;21.52;38.60
64189;BME280;50493;50.970;10.082;2023-04-23T06:59:21;98550.03;;;22.31;37.01
64189;BME280;50493;50.970;10.082;2023-04-23T07:01:47;98543.63;;;22.34;37.23
64189;BME280;50493;50.970;10.082;2023-04-23T07:04:13;98545.72;;;21.98;36.39
64189;BME280;50493;50.970;10.082;2023-04-23T07:06:39;98541.69;;;22.36;36.89
64189;BME280;50493;50.970;10.082;2023-04-23T07:09:04;98542.19;;;22.72;36.24
64189;BME280;50493;50.970;10.082;2023-04-23T07:11:30;98544.50;;;20.08;38.53
64189;BME280;50493;50.970;10.082;2023-04-23T07:13:58;98534.94;;;19.57;39.53
64189;BME280;50493;50.970;10.082;2023-04-23T07:16:24;98538.31;;;18.96;40.73
64189;BME280;50493;50.970;10.082;2023-04-23T07:18:50;98532.25;;;19.94;42.55
64189;BME280;50493;50.970;10.082;2023-04-23T07:21:16;98536.53;;;20.32;40.55
64189;BME280;50493;50.970;10.082;2023-04-23T07:23:42;98535.44;;;19.99;39.30
64189;BME280;50493;50.970;10.082;2023-04-23T07:26:07;98536.50;;;22.23;38.93
64189;BME280;50493;50.970;10.082;2023-04-23T07:28:32;98528.44;;;22.67;35.44
64189;BME280;50493;50.970;10.082;2023-04-23T07:30:58;98528.00;;;22.93;33.94
64189;BME280;50493;50.970;10.082;2023-04-23T07:33:23;98531.56;;;23.44;33.72
64189;BME280;50493;50.970;10.082;2023-04-23T07:35:49;98539.72;;;22.38;35.71
64189;BME280;50493;50.970;10.082;2023-04-23T07:38:16;98541.97;;;21.00;39.47
64189;BME280;50493;50.970;10.082;2023-04-23T07:40:41;98543.81;;;19.68;39.35
64189;BME280;50493;50.970;10.082;2023-04-23T07:43:07;98531.88;;;19.63;39.60
64189;BME280;50493;50.970;10.082;2023-04-23T07:45:32;98538.22;;;18.97;41.08
64189;BME280;50493;50.970;10.082;2023-04-23T07:47:57;98535.28;;;18.10;43.30
64189;BME280;50493;50.970;10.082;2023-04-23T07:50:23;98531.94;;;19.37;41.71
64189;BME280;50493;50.970;10.082;2023-04-23T07:52:48;98530.13;;;19.99;39.43
64189;BME280;50493;50.970;10.082;2023-04-23T07:55:15;98537.63;;;21.88;36.09
64189;BME280;50493;50.970;10.082;2023-04-23T07:57:41;98532.34;;;22.63;34.12
64189;BME280;50493;50.970;10.082;2023-04-23T08:00:07;98531.66;;;22.70;35.26
64189;BME280;50493;50.970;10.082;2023-04-23T08:02:33;98527.59;;;22.97;32.20
64189;BME280;50493;50.970;10.082;2023-04-23T08:04:59;98525.78;;;22.13;33.10
64189;BME280;50493;50.970;10.082;2023-04-23T08:07:24;98520.44;;;21.92;34.46
64189;BME280;50493;50.970;10.082;2023-04-23T08:09:50;98514.41;;;20.67;35.03
64189;BME280;50493;50.970;10.082;2023-04-23T08:12:17;98514.53;;;19.70;39.05
64189;BME280;50493;50.970;10.082;2023-04-23T08:14:43;98521.09;;;19.77;37.79
64189;BME280;50493;50.970;10.082;2023-04-23T08:17:09;98530.00;;;20.25;37.19
64189;BME280;50493;50.970;10.082;2023-04-23T08:19:34;98519.25;;;21.18;36.02
64189;BME280;50493;50.970;10.082;2023-04-23T08:21:59;98517.69;;;21.82;34.27
64189;BME280;50493;50.970;10.082;2023-04-23T08:24:25;98519.72;;;22.22;35.48
64189;BME280;50493;50.970;10.082;2023-04-23T08:26:51;98517.72;;;23.09;34.13
64189;BME280;50493;50.970;10.082;2023-04-23T08:29:18;98523.44;;;22.74;32.36
64189;BME280;50493;50.970;10.082;2023-04-23T08:31:43;98534.19;;;22.09;35.54
64189;BME280;50493;50.970;10.082;2023-04-23T08:34:08;98528.72;;;22.31;34.47
64189;BME280;50493;50.970;10.082;2023-04-23T08:36:34;98530.06;;;23.10;32.80
64189;BME280;50493;50.970;10.082;2023-04-23T08:38:59;98519.22;;;22.71;31.01
64189;BME280;50493;50.970;10.082;2023-04-23T08:41:31;98521.63;;;23.05;30.92
64189;BME280;50493;50.970;10.082;2023-04-23T08:44:06;98505.47;;;23.47;32.12
64189;BME280;50493;50.970;10.082;2023-04-23T08:46:41;98502.53;;;23.50;32.33
64189;BME280;50493;50.970;10.082;2023-04-23T08:49:07;98497.97;;;24.01;30.64
64189;BME280;50493;50.970;10.082;2023-04-23T08:51:42;98499.31;;;24.54;31.78
64189;BME280;50493;50.970;10.082;2023-04-23T08:54:13;98489.16;;;25.33;29.36
64189;BME280;50493;50.970;10.082;2023-04-23T08:56:40;98485.94;;;25.02;30.37
64189;BME280;50493;50.970;10.082;2023-04-23T08:59:05;98477.63;;;24.58;30.54
64189;BME280;50493;50.970;10.082;2023-04-23T09:01:32;98486.88;;;24.73;31.06
64189;BME280;50493;50.970;10.082;2023-04-23T09:03:59;98483.78;;;25.15;28.63
64189;BME280;50493;50.970;10.082;2023-04-23T09:06:25;98481.69;;;25.55;28.66
64189;BME280;50493;50.970;10.082;2023-04-23T09:08:50;98477.69;;;25.69;28.60
64189;BME280;50493;50.970;10.082;2023-04-23T09:11:17;98482.88;;;25.88;29.77
64189;BME280;50493;50.970;10.082;2023-04-23T09:13:43;98481.19;;;23.50;29.17
64189;BME280;50493;50.970;10.082;2023-04-23T09:16:08;98470.50;;;24.86;29.98
64189;BME280;50493;50.970;10.082;2023-04-23T09:18:34;98475.84;;;24.86;27.43
64189;BME280;50493;50.970;10.082;2023-04-23T09:21:02;98481.28;;;25.78;25.78
64189;BME280;50493;50.970;10.082;2023-04-23T09:23:28;98482.22;;;25.40;28.06
64189;BME280;50493;50.970;10.082;2023-04-23T09:25:56;98485.88;;;24.36;30.92
64189;BME280;50493;50.970;10.082;2023-04-23T09:28:33;98489.38;;;24.84;29.66
64189;BME280;50493;50.970;10.082;2023-04-23T09:30:58;98494.41;;;23.11;31.99
64189;BME280;50493;50.970;10.082;2023-04-23T09:33:24;98491.63;;;24.79;31.59
64189;BME280;50493;50.970;10.082;2023-04-23T09:35:49;98486.72;;;23.78;32.55
64189;BME280;50493;50.970;10.082;2023-04-23T09:38:18;98482.25;;;22.87;33.97
64189;BME280;50493;50.970;10.082;2023-04-23T09:40:43;98487.38;;;22.06;35.87
64189;BME280;50493;50.970;10.082;2023-04-23T09:43:09;98466.28;;;23.48;32.84
64189;BME280;50493;50.970;10.082;2023-04-23T09:45:35;98461.34;;;23.23;32.47
64189;BME280;50493;50.970;10.082;2023-04-23T09:48:00;98457.69;;;23.15;32.82
64189;BME280;50493;50.970;10.082;2023-04-23T09:50:34;98460.94;;;22.57;32.54
64189;BME280;50493;50.970;10.082;2023-04-23T09:53:00;98463.03;;;22.53;33.07
64189;BME280;50493;50.970;10.082;2023-04-23T09:55:28;98457.25;;;22.27;32.45
64189;BME280;50493;50.970;10.082;2023-04-23T09:57:55;98460.81;;;22.89;31.67
64189;BME280;50493;50.970;10.082;2023-04-23T10:00:21;98460.28;;;24.14;30.44
64189;BME280;50493;50.970;10.082;2023-04-23T10:02:50;98461.13;;;23.66;30.44
64189;BME280;50493;50.970;10.082;2023-04-23T10:05:17;98464.84;;;22.10;33.46
64189;BME280;50493;50.970;10.082;2023-04-23T10:07:43;98461.75;;;18.93;38.35
64189;BME280;50493;50.970;10.082;2023-04-23T10:10:10;98454.84;;;20.24;36.58
64189;BME280;50493;50.970;10.082;2023-04-23T10:12:37;98459.81;;;19.69;37.94
64189;BME280;50493;50.970;10.082;2023-04-23T10:15:03;98451.13;;;21.17;39.28
64189;BME280;50493;50.970;10.082;2023-04-23T10:17:29;98447.16;;;22.72;32.04
64189;BME280;50493;50.970;10.082;2023-04-23T10:19:55;98447.59;;;23.18;33.68
64189;BME280;50493;50.970;10.082;2023-04-23T10:22:22;98446.59;;;22.79;34.80
64189;BME280;50493;50.970;10.082;2023-04-23T10:24:52;98448.50;;;23.38;31.50
64189;BME280;50493;50.970;10.082;2023-04-23T10:27:21;98442.00;;;23.21;32.84
64189;BME280;50493;50.970;10.082;2023-04-23T10:29:52;98449.72;;;22.94;32.72
64189;BME280;50493;50.970;10.082;2023-04-23T10:32:19;98458.16;;;21.95;31.87
64189;BME280;50493;50.970;10.082;2023-04-23T10:34:45;98464.16;;;21.32;34.18
64189;BME280;50493;50.970;10.082;2023-04-23T10:37:11;98465.09;;;21.42;35.97
64189;BME280;50493;50.970;10.082;2023-04-23T10:39:37;98461.56;;;21.85;36.80
64189;BME280;50493;50.970;10.082;2023-04-23T10:42:05;98463.34;;;21.64;34.72
64189;BME280;50493;50.970;10.082;2023-04-23T10:44:32;98448.13;;;21.66;33.17
64189;BME280;50493;50.970;10.082;2023-04-23T10:46:59;98444.84;;;21.18;35.96
64189;BME280;50493;50.970;10.082;2023-04-23T10:49:29;98447.25;;;21.21;38.95
64189;BME280;50493;50.970;10.082;2023-04-23T10:51:58;98445.09;;;20.81;33.84
64189;BME280;50493;50.970;10.082;2023-04-23T10:54:28;98445.97;;;20.59;34.60
64189;BME280;50493;50.970;10.082;2023-04-23T10:56:58;98442.22;;;20.62;34.26
64189;BME280;50493;50.970;10.082;2023-04-23T10:59:24;98447.41;;;20.52;37.01
64189;BME280;50493;50.970;10.082;2023-04-23T11:01:49;98429.41;;;20.55;35.89
64189;BME280;50493;50.970;10.082;2023-04-23T11:04:26;98431.59;;;20.50;38.40
64189;BME280;50493;50.970;10.082;2023-04-23T11:06:54;98434.34;;;21.05;37.17
64189;BME280;50493;50.970;10.082;2023-04-23T11:09:31;98429.84;;;21.29;37.05
64189;BME280;50493;50.970;10.082;2023-04-23T11:12:00;98436.63;;;21.33;38.01
64189;BME280;50493;50.970;10.082;2023-04-23T11:14:34;98427.41;;;21.37;35.91
64189;BME280;50493;50.970;10.082;2023-04-23T11:17:02;98425.94;;;20.78;35.16
64189;BME280;50493;50.970;10.082;2023-04-23T11:19:29;98423.16;;;20.91;35.92
64189;BME280;50493;50.970;10.082;2023-04-23T11:22:00;98422.34;;;20.09;40.02
64189;BME280;50493;50.970;10.082;2023-04-23T11:24:27;98422.88;;;20.82;34.15
64189;BME280;50493;50.970;10.082;2023-04-23T11:26:52;98417.84;;;20.57;34.21
64189;BME280;50493;50.970;10.082;2023-04-23T11:29:20;98415.19;;;20.68;34.81
64189;BME280;50493;50.970;10.082;2023-04-23T11:31:47;98421.84;;;20.40;33.58
64189;BME280;50493;50.970;10.082;2023-04-23T11:34:12;98413.00;;;20.73;34.23
64189;BME280;50493;50.970;10.082;2023-04-23T11:36:39;98402.38;;;20.73;33.56
64189;BME280;50493;50.970;10.082;2023-04-23T11:39:04;98406.59;;;20.98;38.90
64189;BME280;50493;50.970;10.082;2023-04-23T11:41:30;98397.94;;;21.61;38.49
64189;BME280;50493;50.970;10.082;2023-04-23T11:43:56;98393.63;;;22.24;34.95
64189;BME280;50493;50.970;10.082;2023-04-23T11:46:22;98386.03;;;22.81;34.45
64189;BME280;50493;50.970;10.082;2023-04-23T11:48:50;98378.91;;;22.91;35.88
64189;BME280;50493;50.970;10.082;2023-04-23T11:51:16;98384.84;;;22.33;37.80
64189;BME280;50493;50.970;10.082;2023-04-23T11:53:45;98372.31;;;22.85;36.55
64189;BME280;50493;50.970;10.082;2023-04-23T11:56:10;98372.31;;;21.71;31.25
64189;BME280;50493;50.970;10.082;2023-04-23T11:58:36;98370.94;;;22.19;31.14
64189;BME280;50493;50.970;10.082;2023-04-23T12:01:01;98368.97;;;22.21;28.79
64189;BME280;50493;50.970;10.082;2023-04-23T12:03:26;98369.13;;;21.78;35.12
64189;BME280;50493;50.970;10.082;2023-04-23T12:05:53;98367.53;;;21.54;38.60
64189;BME280;50493;50.970;10.082;2023-04-23T12:08:20;98367.00;;;21.39;32.61
64189;BME280;50493;50.970;10.082;2023-04-23T12:10:49;98359.84;;;22.14;31.18
64189;BME280;50493;50.970;10.082;2023-04-23T12:13:16;98351.75;;;22.47;36.41
64189;BME280;50493;50.970;10.082;2023-04-23T12:15:47;98356.81;;;22.60;33.32
64189;BME280;50493;50.970;10.082;2023-04-23T12:18:12;98346.66;;;22.84;32.16
64189;BME280;50493;50.970;10.082;2023-04-23T12:20:38;98349.69;;;22.70;36.19
64189;BME280;50493;50.970;10.082;2023-04-23T12:23:05;98347.31;;;22.67;28.99
64189;BME280;50493;50.970;10.082;2023-04-23T12:25:34;98351.63;;;22.27;30.82
64189;BME280;50493;50.970;10.082;2023-04-23T12:28:02;98355.91;;;22.39;38.19
64189;BME280;50493;50.970;10.082;2023-04-23T12:30:29;98343.72;;;22.87;36.13
64189;BME280;50493;50.970;10.082;2023-04-23T12:32:58;98348.59;;;22.82;32.00
64189;BME280;50493;50.970;10.082;2023-04-23T12:35:36;98348.78;;;22.19;39.12
64189;BME280;50493;50.970;10.082;2023-04-23T12:38:04;98349.00;;;22.06;31.07
64189;BME280;50493;50.970;10.082;2023-04-23T12:40:30;98350.56;;;21.87;29.09
64189;BME280;50493;50.970;10.082;2023-04-23T12:42:55;98348.56;;;21.47;29.87
64189;BME280;50493;50.970;10.082;2023-04-23T12:45:22;98340.13;;;21.42;30.97